Time;durP1;ratioP1;P1;durP2;ratioP2;P2;SDS_P1;SDS_P2;PMS_P1;PMS_P2;Temp;Humidity;BMP_temperature;BMP_pressure;BME280_temperature;BME280_humidity;BME280_pressure;Samples;Min_cycle;Max_cycle;Signal;HPM_P1;HPM_P2
2023/10/04 00:00:45;;;;;;;0.40;0.20;;;;;;;;;;5005944;28;20183;-81
2023/10/04 00:03:10;;;;;;;0.40;0.30;;;12.10;99.90;;;;;;5001295;28;20266;-80
2023/10/04 00:05:37;;;;;;;0.40;0.30;;;;;;;;;;5001054;28;21629;-82
2023/10/04 00:08:03;;;;;;;2.15;0.50;;;11.90;99.90;;;;;;4993457;28;20198;-78
2023/10/04 00:10:28;;;;;;;0.40;0.20;;;;;;;;;;5005956;28;20222;-83
2023/10/04 00:12:55;;;;;;;0.40;0.20;;;;;;;;;;4989063;28;21540;-79
2023/10/04 00:15:22;;;;;;;1.02;0.93;;;11.70;99.90;;;;;;4987233;28;20441;-80
2023/10/04 00:17:48;;;;;;;0.40;0.25;;;11.70;99.90;;;;;;5002102;28;20265;-82
2023/10/04 00:20:17;;;;;;;0.40;0.20;;;11.80;99.90;;;;;;5001900;28;20689;-85
2023/10/04 00:22:46;;;;;;;0.40;0.20;;;11.70;99.90;;;;;;5002894;28;20190;-81
2023/10/04 00:25:20;;;;;;;0.40;0.22;;;11.70;99.90;;;;;;4999390;28;20191;-80
2023/10/04 00:27:47;;;;;;;0.40;0.40;;;;;;;;;;4982521;28;20822;-78
2023/10/04 00:30:17;;;;;;;0.68;0.65;;;11.70;99.90;;;;;;4998116;28;20218;-82
2023/10/04 00:32:44;;;;;;;0.40;0.30;;;;;;;;;;5005833;28;20202;-82
2023/10/04 00:35:19;;;;;;;0.40;0.30;;;;;;;;;;4987211;28;20268;-80
2023/10/04 00:37:50;;;;;;;0.50;0.40;;;11.90;99.90;;;;;;4999355;28;20241;-82
2023/10/04 00:40:25;;;;;;;0.40;0.20;;;11.90;99.90;;;;;;5006103;28;20217;-78
2023/10/04 00:42:51;;;;;;;0.40;0.30;;;;;;;;;;4995630;28;20261;-83
2023/10/04 00:45:21;;;;;;;0.73;0.73;;;;;;;;;;5007630;28;20189;-82
2023/10/04 00:47:54;;;;;;;0.40;0.20;;;12.00;99.90;;;;;;4987566;28;20190;-82
2023/10/04 00:50:31;;;;;;;0.40;0.20;;;12.00;99.90;;;;;;5004796;28;20198;-80
2023/10/04 00:53:05;;;;;;;0.40;0.30;;;12.10;99.90;;;;;;5001357;28;20817;-82
2023/10/04 00:55:34;;;;;;;0.40;0.30;;;12.10;99.90;;;;;;5012875;28;20237;-78
2023/10/04 00:58:05;;;;;;;0.40;0.20;;;12.10;99.90;;;;;;5008687;28;20196;-81
2023/10/04 01:00:31;;;;;;;0.40;0.30;;;12.10;99.90;;;;;;5003963;28;20210;-83
2023/10/04 01:02:57;;;;;;;0.40;0.23;;;12.00;99.90;;;;;;5000692;28;20213;-82
2023/10/04 01:05:25;;;;;;;0.50;0.30;;;;;;;;;;5000875;28;20209;-82
2023/10/04 01:07:52;;;;;;;0.40;0.20;;;12.00;99.90;;;;;;5005578;28;20553;-85
2023/10/04 01:10:20;;;;;;;0.40;0.20;;;11.90;99.90;;;;;;4985451;28;20218;-81
2023/10/04 01:12:49;;;;;;;0.40;0.20;;;;;;;;;;5001985;28;20932;-80
2023/10/04 01:15:32;;;;;;;0.40;0.20;;;11.80;99.90;;;;;;4990982;28;20198;-84
2023/10/04 01:18:00;;;;;;;0.40;0.20;;;11.80;99.90;;;;;;4979552;28;20198;-80
2023/10/04 01:20:30;;;;;;;0.40;0.30;;;11.70;99.90;;;;;;4982205;28;20211;-79
2023/10/04 01:23:01;;;;;;;0.40;0.28;;;11.70;99.90;;;;;;4998949;28;20190;-83
2023/10/04 01:25:31;;;;;;;0.40;0.30;;;11.60;99.90;;;;;;4986686;28;20245;-81
2023/10/04 01:27:58;;;;;;;0.40;0.30;;;;;;;;;;4998485;28;20205;-84
2023/10/04 01:30:24;;;;;;;0.40;0.20;;;11.60;99.90;;;;;;5000941;28;20198;-83
2023/10/04 01:32:50;;;;;;;0.75;0.75;;;11.60;99.90;;;;;;4985781;28;20214;-80
2023/10/04 01:35:18;;;;;;;0.40;0.30;;;11.50;99.90;;;;;;5000479;28;20249;-83
2023/10/04 01:37:44;;;;;;;0.65;0.40;;;11.50;99.90;;;;;;4984163;28;20217;-84
2023/10/04 01:40:12;;;;;;;0.40;0.20;;;11.50;99.90;;;;;;4983417;28;20691;-84
2023/10/04 01:42:40;;;;;;;0.40;0.20;;;11.50;99.90;;;;;;4994314;28;20190;-80
2023/10/04 01:45:09;;;;;;;0.40;0.20;;;11.60;99.90;;;;;;4998635;28;20254;-79
2023/10/04 01:47:35;;;;;;;2.38;2.05;;;11.40;99.90;;;;;;4975884;28;20755;-77
2023/10/04 01:50:01;;;;;;;0.40;0.20;;;11.40;99.90;;;;;;4990963;28;20228;-77
2023/10/04 01:52:26;;;;;;;0.40;0.20;;;11.30;99.90;;;;;;4998409;28;20210;-79
2023/10/04 01:54:53;;;;;;;0.40;0.20;;;;;;;;;;5000439;28;20183;-78
2023/10/04 01:57:19;;;;;;;0.40;0.30;;;11.30;99.90;;;;;;4983362;28;20201;-83
2023/10/04 01:59:44;;;;;;;0.40;0.20;;;11.30;99.90;;;;;;4997401;28;20214;-81
2023/10/04 02:02:10;;;;;;;0.40;0.20;;;11.20;99.90;;;;;;4998578;28;20199;-79
2023/10/04 02:04:36;;;;;;;0.40;0.20;;;;;;;;;;4978476;28;20191;-81
2023/10/04 02:07:02;;;;;;;0.40;0.20;;;;;;;;;;4998237;28;20187;-83
2023/10/04 02:09:28;;;;;;;0.40;0.20;;;;;;;;;;4991527;28;23344;-80
2023/10/04 02:11:54;;;;;;;0.40;0.20;;;;;;;;;;5003370;28;20449;-83
2023/10/04 02:14:20;;;;;;;0.40;0.20;;;11.10;99.90;;;;;;5004268;28;20445;-78
2023/10/04 02:16:46;;;;;;;0.40;0.20;;;;;;;;;;4999928;28;20445;-78
2023/10/04 02:19:12;;;;;;;0.40;0.40;;;11.10;99.90;;;;;;4999300;28;20193;-84
2023/10/04 02:21:37;;;;;;;0.40;0.30;;;11.10;99.90;;;;;;5006775;28;20464;-80
2023/10/04 02:24:04;;;;;;;0.50;0.30;;;;;;;;;;4984385;28;20199;-79
2023/10/04 02:26:31;;;;;;;0.40;0.20;;;;;;;;;;5000217;28;20190;-82
2023/10/04 02:28:57;;;;;;;0.40;0.20;;;;;;;;;;4976493;28;21036;-79
2023/10/04 02:31:23;;;;;;;0.60;0.50;;;;;;;;;;4982627;28;20185;-80
2023/10/04 02:33:52;;;;;;;1.43;1.13;;;;;;;;;;4978089;28;20460;-82
2023/10/04 02:36:18;;;;;;;0.40;0.30;;;;;;;;;;4991360;28;20510;-83
2023/10/04 02:38:44;;;;;;;0.40;0.20;;;10.90;99.90;;;;;;4973427;28;20266;-83
2023/10/04 02:41:10;;;;;;;0.73;0.67;;;;;;;;;;4996124;28;23090;-82
2023/10/04 02:43:40;;;;;;;0.40;0.20;;;11.00;99.90;;;;;;4978890;28;20561;-81
2023/10/04 02:46:05;;;;;;;0.40;0.30;;;11.00;99.90;;;;;;4976986;28;21346;-83
2023/10/04 02:48:32;;;;;;;0.50;0.50;;;11.00;99.90;;;;;;4997680;28;20178;-81
2023/10/04 02:50:58;;;;;;;0.40;0.20;;;;;;;;;;4996128;28;20301;-78
2023/10/04 02:53:25;;;;;;;0.40;0.30;;;10.90;99.90;;;;;;4988457;28;20695;-82
2023/10/04 02:55:54;;;;;;;0.40;0.20;;;10.80;99.90;;;;;;4998376;28;20240;-82
2023/10/04 02:58:21;;;;;;;0.40;0.30;;;10.90;99.90;;;;;;4997837;28;20225;-83
2023/10/04 03:00:49;;;;;;;0.40;0.20;;;10.80;99.90;;;;;;4973204;28;20324;-82
2023/10/04 03:03:19;;;;;;;0.40;0.20;;;10.90;99.90;;;;;;4995390;28;20191;-80
2023/10/04 03:05:45;;;;;;;0.40;0.30;;;10.90;99.90;;;;;;4975046;28;20297;-78
2023/10/04 03:08:11;;;;;;;0.40;0.20;;;10.90;99.90;;;;;;4980489;28;20244;-81
2023/10/04 03:10:37;;;;;;;0.40;0.30;;;10.90;99.90;;;;;;5003374;28;20213;-84
2023/10/04 03:13:12;;;;;;;0.40;0.30;;;10.90;99.90;;;;;;5002514;28;20212;-79
2023/10/04 03:15:38;;;;;;;0.40;0.30;;;11.30;99.90;;;;;;4985167;28;20246;-79
2023/10/04 03:18:13;;;;;;;0.40;0.30;;;10.90;99.90;;;;;;4989511;28;20213;-84
2023/10/04 03:20:56;;;;;;;0.40;0.20;;;11.30;99.90;;;;;;4992300;28;20269;-83
2023/10/04 03:23:23;;;;;;;0.40;0.30;;;10.80;99.90;;;;;;5017525;28;20238;-82
2023/10/04 03:25:51;;;;;;;0.40;0.20;;;10.70;99.90;;;;;;4992877;28;20183;-80
2023/10/04 03:28:16;;;;;;;0.40;0.20;;;10.60;99.90;;;;;;5011081;28;21215;-81
2023/10/04 03:30:45;;;;;;;0.40;0.20;;;10.60;99.90;;;;;;4994305;28;20285;-81
2023/10/04 03:33:11;;;;;;;0.40;0.30;;;;;;;;;;4987044;28;20210;-80
2023/10/04 03:35:39;;;;;;;0.40;0.20;;;;;;;;;;4989182;28;20198;-81
2023/10/04 03:38:08;;;;;;;0.40;0.20;;;10.70;99.90;;;;;;5002237;28;20242;-84
2023/10/04 03:40:34;;;;;;;0.40;0.30;;;;;;;;;;5004933;28;20264;-80
2023/10/04 03:43:02;;;;;;;2.37;0.50;;;10.70;99.90;;;;;;4983182;28;20198;-78
2023/10/04 03:45:30;;;;;;;0.40;0.30;;;10.60;99.90;;;;;;5004883;28;21193;-82
2023/10/04 03:47:57;;;;;;;0.40;0.20;;;;;;;;;;4984457;28;20186;-78
2023/10/04 03:50:24;;;;;;;0.40;0.20;;;;;;;;;;4992105;28;20210;-80
2023/10/04 03:52:52;;;;;;;0.55;0.40;;;;;;;;;;4985047;28;20210;-81
2023/10/04 03:55:18;;;;;;;0.40;0.20;;;;;;;;;;4999926;28;20185;-82
2023/10/04 03:57:44;;;;;;;0.40;0.25;;;10.40;99.90;;;;;;4996328;28;20182;-79
2023/10/04 04:00:12;;;;;;;0.40;0.20;;;10.40;99.90;;;;;;5001643;28;20730;-80
2023/10/04 04:02:39;;;;;;;0.40;0.30;;;10.40;99.90;;;;;;4984564;28;20198;-81
2023/10/04 04:05:13;;;;;;;0.40;0.30;;;10.30;99.90;;;;;;5001116;28;20193;-78
2023/10/04 04:07:42;;;;;;;0.40;0.30;;;10.40;99.90;;;;;;4997162;28;20185;-81
2023/10/04 04:10:11;;;;;;;0.40;0.30;;;10.40;99.90;;;;;;5000517;28;20206;-80
2023/10/04 04:12:40;;;;;;;0.40;0.30;;;;;;;;;;4997187;28;20221;-80
2023/10/04 04:15:09;;;;;;;0.40;0.30;;;10.40;99.90;;;;;;5000258;28;20175;-78
2023/10/04 04:17:36;;;;;;;0.40;0.28;;;10.40;99.90;;;;;;4993023;28;20194;-77
2023/10/04 04:20:26;;;;;;;0.40;0.20;;;10.40;99.90;;;;;;5001466;28;20320;-81
2023/10/04 04:22:53;;;;;;;0.40;0.30;;;10.40;99.90;;;;;;5007267;28;20214;-81
2023/10/04 04:25:23;;;;;;;0.40;0.30;;;10.40;99.90;;;;;;5006042;28;21385;-82
2023/10/04 04:27:50;;;;;;;0.40;0.20;;;10.40;99.90;;;;;;5000545;28;20182;-82
2023/10/04 04:30:19;;;;;;;0.40;0.20;;;10.40;99.90;;;;;;4977366;28;20230;-82
2023/10/04 04:32:49;;;;;;;0.40;0.20;;;10.40;99.90;;;;;;5006076;28;20228;-80
2023/10/04 04:38:19;;;;;;;0.40;0.20;;;10.30;99.90;;;;;;5000562;28;20751;-81
2023/10/04 04:40:49;;;;;;;0.40;0.25;;;;;;;;;;4979235;28;20209;-82
2023/10/04 04:45:51;;;;;;;0.40;0.30;;;;;;;;;;4998369;28;20194;-80
2023/10/04 04:48:24;;;;;;;0.40;0.20;;;10.30;99.90;;;;;;4990337;28;20225;-78
2023/10/04 04:51:18;;;;;;;0.40;0.30;;;10.20;99.90;;;;;;4975239;28;20206;-79
2023/10/04 04:53:46;;;;;;;0.40;0.20;;;10.20;99.90;;;;;;4988127;28;20210;-80
2023/10/04 04:56:14;;;;;;;0.40;0.30;;;10.20;99.90;;;;;;4998216;28;20183;-85
2023/10/04 04:58:41;;;;;;;0.30;0.20;;;10.20;99.90;;;;;;4985288;28;20186;-83
2023/10/04 05:01:13;;;;;;;0.30;0.20;;;10.20;99.90;;;;;;4987772;28;20219;-84
2023/10/04 05:03:41;;;;;;;0.30;0.20;;;;;;;;;;4988840;28;20528;-84
2023/10/04 05:06:12;;;;;;;0.40;0.30;;;10.10;99.90;;;;;;4987300;28;20280;-83
2023/10/04 05:08:38;;;;;;;0.40;0.20;;;10.10;99.90;;;;;;4992955;28;20216;-80
2023/10/04 05:11:07;;;;;;;0.37;0.20;;;10.10;99.90;;;;;;4992043;28;20707;-79
2023/10/04 05:13:33;;;;;;;0.30;0.20;;;;;;;;;;5009472;28;20305;-79
2023/10/04 05:16:00;;;;;;;0.40;0.20;;;;;;;;;;5008506;28;20214;-82
2023/10/04 05:18:26;;;;;;;0.40;0.20;;;;;;;;;;4991856;28;20433;-83
2023/10/04 05:20:54;;;;;;;0.40;0.20;;;;;;;;;;4993981;28;20214;-82
2023/10/04 05:23:21;;;;;;;0.40;0.30;;;10.30;99.90;;;;;;5007185;28;20686;-83
2023/10/04 05:25:48;;;;;;;0.40;0.20;;;;;;;;;;5012048;28;20198;-84
2023/10/04 05:28:14;;;;;;;0.32;0.22;;;;;;;;;;5007784;28;20664;-82
2023/10/04 05:30:42;;;;;;;3.72;1.05;;;10.30;99.90;;;;;;4992247;28;20224;-83
2023/10/04 05:33:08;;;;;;;0.75;0.75;;;;;;;;;;5006024;28;20333;-83
2023/10/04 05:35:35;;;;;;;0.40;0.20;;;10.30;99.90;;;;;;5007799;28;20860;-81
2023/10/04 05:38:03;;;;;;;0.40;0.20;;;;;;;;;;5011286;28;20503;-79
2023/10/04 05:40:34;;;;;;;0.40;0.20;;;10.50;99.90;;;;;;5004841;28;20221;-80
2023/10/04 05:43:00;;;;;;;0.40;0.20;;;;;;;;;;5012378;28;20174;-82
2023/10/04 05:45:26;;;;;;;0.40;0.20;;;10.50;99.90;;;;;;4995386;28;20256;-81
2023/10/04 05:47:52;;;;;;;0.40;0.35;;;10.60;99.90;;;;;;5009293;28;20190;-82
2023/10/04 05:50:21;;;;;;;0.40;0.20;;;10.90;99.90;;;;;;5004020;28;20260;-81
2023/10/04 05:52:50;;;;;;;0.40;0.30;;;11.50;99.90;;;;;;4995617;28;20269;-82
2023/10/04 05:55:22;;;;;;;0.40;0.20;;;11.60;99.90;;;;;;4987347;28;20202;-83
2023/10/04 05:57:50;;;;;;;0.40;0.30;;;12.20;99.90;;;;;;5006114;28;20216;-80
2023/10/04 06:00:40;;;;;;;0.40;0.30;;;13.90;99.90;;;;;;5007064;28;20233;-84
2023/10/04 06:03:07;;;;;;;0.40;0.20;;;13.80;99.90;;;;;;4987393;28;20252;-83
2023/10/04 06:05:37;;;;;;;0.40;0.20;;;14.10;99.90;;;;;;4991948;28;20186;-78
2023/10/04 06:08:15;;;;;;;0.40;0.20;;;14.90;99.90;;;;;;5006929;28;20441;-82
2023/10/04 06:10:42;;;;;;;0.80;0.70;;;;;;;;;;5003861;28;20462;-79
2023/10/04 06:13:11;;;;;;;0.40;0.20;;;;;;;;;;4986069;28;20470;-79
2023/10/04 06:15:42;;;;;;;4.33;1.17;;;16.20;99.90;;;;;;4994651;28;20441;-87
2023/10/04 06:18:09;;;;;;;0.40;0.30;;;18.10;99.90;;;;;;5012840;28;20445;-85
2023/10/04 06:20:36;;;;;;;0.40;0.20;;;;;;;;;;4995201;28;20515;-86
2023/10/04 06:23:06;;;;;;;0.60;0.50;;;19.90;99.90;;;;;;5000950;28;20694;-86
2023/10/04 06:25:34;;;;;;;0.40;0.30;;;20.80;99.90;;;;;;5007797;28;20467;-82
2023/10/04 06:28:03;;;;;;;0.40;0.30;;;21.30;99.90;;;;;;4990432;28;20444;-81
2023/10/04 06:30:31;;;;;;;0.40;0.30;;;21.70;99.90;;;;;;5001551;28;20552;-81
2023/10/04 06:33:02;;;;;;;1.53;1.43;;;21.70;99.90;;;;;;5005566;28;20501;-83
2023/10/04 06:35:28;;;;;;;0.40;0.27;;;22.30;99.90;;;;;;4983073;28;20449;-81
2023/10/04 06:37:59;;;;;;;0.40;0.30;;;22.30;99.90;;;;;;5001967;28;20527;-80
2023/10/04 06:40:26;;;;;;;0.97;0.63;;;23.10;99.90;;;;;;5000957;28;20471;-80
2023/10/04 06:42:55;;;;;;;0.60;0.50;;;21.50;99.90;;;;;;5000245;28;20507;-81
2023/10/04 06:45:26;;;;;;;1.63;0.93;;;21.40;99.90;;;;;;5003651;28;20449;-79
2023/10/04 06:47:53;;;;;;;0.40;0.30;;;20.10;99.90;;;;;;5013847;28;20439;-84
2023/10/04 06:50:21;;;;;;;0.40;0.30;;;20.00;99.90;;;;;;4997812;28;20449;-85
2023/10/04 06:52:48;;;;;;;0.40;0.30;;;19.40;99.90;;;;;;5008965;28;20469;-84
2023/10/04 06:55:16;;;;;;;0.63;0.50;;;18.60;99.90;;;;;;4991791;28;20449;-82
2023/10/04 06:57:43;;;;;;;0.40;0.20;;;;;;;;;;5006771;28;20452;-82
2023/10/04 07:00:17;;;;;;;1.60;0.60;;;17.90;99.90;;;;;;5003355;28;20483;-80
2023/10/04 07:02:53;;;;;;;0.40;0.30;;;17.70;99.90;;;;;;4988436;28;20503;-84
2023/10/04 07:05:20;;;;;;;0.40;0.30;;;19.30;99.90;;;;;;5010980;28;20509;-79
2023/10/04 07:07:48;;;;;;;0.70;0.50;;;20.50;99.90;;;;;;5011582;28;20460;-77
2023/10/04 07:10:15;;;;;;;0.40;0.20;;;;;;;;;;4995982;28;21582;-80
2023/10/04 07:12:43;;;;;;;0.40;0.30;;;20.80;99.90;;;;;;5008555;28;20527;-82
2023/10/04 07:15:10;;;;;;;0.40;0.20;;;20.80;99.90;;;;;;4993860;28;20442;-77
2023/10/04 07:17:39;;;;;;;0.40;0.30;;;20.50;99.90;;;;;;5006834;28;20494;-79
2023/10/04 07:20:16;;;;;;;0.40;0.20;;;19.80;99.90;;;;;;5006355;28;20457;-83
2023/10/04 07:22:44;;;;;;;0.80;0.50;;;21.80;99.90;;;;;;5010106;28;20440;-81
2023/10/04 07:25:12;;;;;;;0.40;0.30;;;21.80;99.90;;;;;;5005243;28;20469;-83
2023/10/04 07:27:38;;;;;;;0.50;0.50;;;;;;;;;;4990504;28;20451;-82
2023/10/04 07:30:04;;;;;;;1.17;0.50;;;23.80;99.30;;;;;;4988660;28;20497;-80
2023/10/04 07:32:31;;;;;;;0.40;0.30;;;;;;;;;;5006591;28;20468;-85
2023/10/04 07:34:56;;;;;;;0.50;0.40;;;;;;;;;;5003185;28;20456;-87
2023/10/04 07:37:22;;;;;;;0.40;0.30;;;;;;;;;;4992199;28;20511;-81
2023/10/04 07:39:48;;;;;;;0.40;0.30;;;;;;;;;;4989280;28;20484;-85
2023/10/04 07:42:14;;;;;;;1.10;0.53;;;;;;;;;;4988454;28;20508;-83
2023/10/04 07:44:40;;;;;;;1.13;0.80;;;;;;;;;;4988738;28;20829;-85
2023/10/04 07:47:06;;;;;;;0.40;0.30;;;;;;;;;;4995239;28;21302;-78
2023/10/04 07:49:32;;;;;;;0.40;0.30;;;;;;;;;;4990158;28;20472;-79
2023/10/04 07:51:59;;;;;;;0.40;0.30;;;;;;;;;;4999849;28;20457;-82
2023/10/04 07:54:25;;;;;;;0.40;0.30;;;;;;;;;;5010290;28;20433;-84
2023/10/04 07:56:51;;;;;;;0.70;0.40;;;;;;;;;;5009289;28;20528;-79
2023/10/04 07:59:19;;;;;;;0.40;0.30;;;25.20;93.00;;;;;;5003389;28;20453;-81
2023/10/04 08:01:45;;;;;;;0.40;0.30;;;;;;;;;;5014764;28;20512;-86
2023/10/04 08:04:11;;;;;;;0.40;0.30;;;;;;;;;;5011724;28;20437;-80
2023/10/04 08:06:40;;;;;;;0.50;0.30;;;;;;;;;;4991209;28;20467;-79
2023/10/04 08:09:07;;;;;;;0.40;0.30;;;;;;;;;;5004532;28;20454;-80
2023/10/04 08:11:33;;;;;;;0.40;0.30;;;;;;;;;;4992491;28;20442;-83
2023/10/04 08:13:59;;;;;;;0.93;0.60;;;;;;;;;;4998240;28;20527;-81
2023/10/04 08:16:25;;;;;;;0.40;0.30;;;;;;;;;;4996149;28;21360;-80
2023/10/04 08:18:51;;;;;;;1.17;0.40;;;;;;;;;;4991098;28;20470;-81
2023/10/04 08:21:17;;;;;;;0.50;0.50;;;;;;;;;;5005845;28;20512;-79
2023/10/04 08:23:42;;;;;;;0.50;0.40;;;26.10;88.50;;;;;;5001348;28;20465;-82
2023/10/04 08:26:15;;;;;;;0.40;0.30;;;26.90;87.30;;;;;;4995339;28;20495;-81
2023/10/04 08:28:42;;;;;;;0.40;0.30;;;;;;;;;;5010302;28;20196;-81
2023/10/04 08:31:13;;;;;;;1.37;0.50;;;25.20;88.20;;;;;;4988301;28;20469;-84
2023/10/04 08:33:39;;;;;;;0.40;0.30;;;;;;;;;;5009244;28;20472;-85
2023/10/04 08:36:08;;;;;;;0.60;0.60;;;23.10;85.80;;;;;;4993521;28;21071;-82
2023/10/04 08:38:34;;;;;;;0.50;0.30;;;21.40;92.20;;;;;;4988470;28;20449;-81
2023/10/04 08:41:02;;;;;;;0.97;0.53;;;;;;;;;;5005853;28;20468;-82
2023/10/04 08:43:28;;;;;;;0.63;0.63;;;;;;;;;;4994833;28;20186;-83
2023/10/04 08:45:56;;;;;;;1.13;0.93;;;20.60;96.10;;;;;;5010178;28;20449;-84
2023/10/04 08:48:25;;;;;;;0.40;0.30;;;20.60;96.50;;;;;;5008537;28;20453;-81
2023/10/04 08:51:01;;;;;;;0.40;0.30;;;20.70;97.10;;;;;;5003316;28;20487;-81
2023/10/04 08:53:48;;;;;;;0.40;0.30;;;22.50;98.70;;;;;;5005945;28;20497;-82
2023/10/04 08:56:17;;;;;;;0.40;0.30;;;22.40;94.60;;;;;;5015338;28;20441;-77
2023/10/04 08:58:43;;;;;;;0.40;0.30;;;22.30;94.90;;;;;;4989771;28;20548;-82
2023/10/04 09:01:11;;;;;;;0.97;0.90;;;22.90;95.30;;;;;;5012842;28;20520;-79
2023/10/04 09:03:39;;;;;;;0.40;0.30;;;21.10;93.80;;;;;;4992709;28;20457;-80
2023/10/04 09:06:08;;;;;;;0.40;0.30;;;22.30;94.80;;;;;;5007238;28;20465;-78
2023/10/04 09:08:33;;;;;;;0.40;0.30;;;21.70;96.90;;;;;;5007273;28;20437;-82
2023/10/04 09:11:00;;;;;;;0.40;0.30;;;;;;;;;;4991517;28;20479;-82
2023/10/04 09:13:26;;;;;;;0.40;0.30;;;23.10;95.20;;;;;;5013840;28;20207;-80
2023/10/04 09:15:52;;;;;;;0.40;0.30;;;24.40;94.20;;;;;;5010329;28;20469;-86
2023/10/04 09:18:25;;;;;;;0.67;0.67;;;23.10;92.20;;;;;;4982910;28;20450;-83
2023/10/04 09:20:51;;;;;;;0.40;0.30;;;;;;;;;;4993606;28;20920;-79
2023/10/04 09:23:24;;;;;;;0.50;0.30;;;22.70;93.20;;;;;;5007006;28;21172;-84
2023/10/04 09:25:54;;;;;;;0.50;0.40;;;;;;;;;;4997765;28;20885;-82
2023/10/04 09:28:19;;;;;;;0.57;0.40;;;22.20;93.00;;;;;;4989055;28;20819;-81
2023/10/04 09:30:45;;;;;;;0.50;0.43;;;;;;;;;;5007046;28;20496;-81
2023/10/04 09:33:23;;;;;;;0.40;0.30;;;20.20;98.40;;;;;;5008008;28;20210;-83
2023/10/04 09:35:50;;;;;;;0.40;0.23;;;;;;;;;;5004180;28;20430;-84
2023/10/04 09:38:21;;;;;;;0.40;0.30;;;18.90;98.20;;;;;;5009211;28;20432;-78
2023/10/04 09:40:53;;;;;;;0.40;0.30;;;18.10;99.90;;;;;;5016923;28;20553;-82
2023/10/04 09:43:31;;;;;;;0.40;0.30;;;17.20;99.90;;;;;;5015873;28;20483;-82
2023/10/04 09:45:57;;;;;;;1.60;0.73;;;17.10;99.90;;;;;;5008699;28;20970;-83
2023/10/04 09:48:24;;;;;;;0.40;0.20;;;17.30;99.90;;;;;;5009011;28;20437;-80
2023/10/04 09:50:50;;;;;;;1.43;0.40;;;16.20;99.90;;;;;;5008623;28;20207;-81
2023/10/04 09:53:16;;;;;;;0.60;0.50;;;;;;;;;;5008198;28;20465;-80
2023/10/04 09:55:43;;;;;;;0.50;0.30;;;16.30;99.90;;;;;;5015794;28;20515;-83
2023/10/04 09:58:11;;;;;;;1.00;1.00;;;16.00;99.90;;;;;;5010685;28;20469;-80
2023/10/04 10:00:38;;;;;;;0.40;0.20;;;16.00;99.90;;;;;;4990708;28;21388;-82
2023/10/04 10:03:08;;;;;;;0.40;0.30;;;16.00;99.90;;;;;;4996224;28;20473;-80
2023/10/04 10:05:36;;;;;;;0.40;0.30;;;16.30;99.90;;;;;;4986230;28;20450;-81
2023/10/04 10:08:06;;;;;;;0.40;0.30;;;16.80;99.90;;;;;;5005529;28;21213;-81
2023/10/04 10:10:34;;;;;;;0.40;0.20;;;16.90;99.90;;;;;;4983057;28;20483;-82
2023/10/04 10:13:00;;;;;;;0.77;0.67;;;17.20;99.90;;;;;;4987387;28;20476;-83
2023/10/04 10:15:27;;;;;;;0.40;0.30;;;16.50;99.90;;;;;;5010238;28;20464;-86
2023/10/04 10:17:53;;;;;;;0.40;0.27;;;17.10;99.90;;;;;;5004134;28;20446;-80
2023/10/04 10:20:19;;;;;;;0.93;0.93;;;19.10;99.90;;;;;;5005995;28;20509;-84
2023/10/04 10:23:15;;;;;;;0.40;0.20;;;16.30;99.90;;;;;;4993961;28;20460;-81
2023/10/04 10:26:00;;;;;;;0.40;0.20;;;16.90;99.90;;;;;;5005810;28;20476;-84
2023/10/04 10:28:26;;;;;;;0.40;0.20;;;17.40;99.90;;;;;;5009022;28;20465;-83
2023/10/04 10:31:00;;;;;;;0.40;0.30;;;17.70;99.90;;;;;;5008684;28;20488;-83
2023/10/04 10:33:26;;;;;;;0.57;0.57;;;17.30;99.90;;;;;;5007704;28;20283;-83
2023/10/04 10:35:52;;;;;;;0.40;0.30;;;17.50;99.90;;;;;;5007364;28;20488;-84
2023/10/04 10:38:40;;;;;;;0.40;0.23;;;18.90;99.90;;;;;;5006168;28;20197;-84
2023/10/04 10:41:28;;;;;;;0.40;0.20;;;17.50;99.90;;;;;;5006070;28;20473;-84
2023/10/04 10:44:13;;;;;;;0.40;0.30;;;17.90;99.90;;;;;;5011646;28;20456;-83
2023/10/04 10:46:58;;;;;;;0.40;0.30;;;17.30;99.90;;;;;;5009082;28;20441;-85
2023/10/04 10:49:40;;;;;;;0.40;0.20;;;16.30;99.90;;;;;;4991556;28;20445;-80
2023/10/04 10:52:26;;;;;;;0.40;0.20;;;16.20;99.90;;;;;;5006769;28;20467;-82
2023/10/04 10:54:54;;;;;;;0.40;0.30;;;16.00;99.90;;;;;;4987120;28;20449;-82
2023/10/04 10:57:24;;;;;;;0.40;0.30;;;16.40;99.90;;;;;;5010717;28;20455;-77
2023/10/04 10:59:56;;;;;;;0.40;0.20;;;16.50;99.90;;;;;;5019421;28;20826;-82
2023/10/04 11:02:22;;;;;;;0.60;0.50;;;16.10;99.90;;;;;;5013406;28;20449;-83
2023/10/04 11:04:49;;;;;;;0.40;0.30;;;16.10;99.90;;;;;;5010631;28;20494;-79
2023/10/04 11:07:17;;;;;;;1.33;0.50;;;;;;;;;;5012434;28;20508;-78
2023/10/04 11:09:49;;;;;;;0.50;0.30;;;15.80;99.90;;;;;;5004189;28;20487;-82
2023/10/04 11:12:21;;;;;;;0.60;0.50;;;15.80;99.90;;;;;;5016424;28;20467;-82
2023/10/04 11:14:47;;;;;;;0.50;0.47;;;;;;;;;;5011198;28;20475;-81
2023/10/04 11:17:16;;;;;;;0.40;0.20;;;15.70;99.90;;;;;;4996252;28;20433;-82
2023/10/04 11:19:42;;;;;;;0.40;0.20;;;;;;;;;;4993668;28;20550;-80
2023/10/04 11:22:10;;;;;;;0.40;0.20;;;16.20;99.90;;;;;;4993541;28;20442;-84
2023/10/04 11:24:37;;;;;;;0.40;0.23;;;;;;;;;;5013801;28;20445;-83
2023/10/04 11:27:03;;;;;;;0.50;0.30;;;16.90;99.90;;;;;;5010720;28;20440;-81
2023/10/04 11:29:30;;;;;;;0.40;0.23;;;17.30;99.90;;;;;;5015686;28;20492;-84
2023/10/04 11:31:58;;;;;;;0.40;0.20;;;17.10;99.90;;;;;;5019313;28;20426;-79
2023/10/04 11:34:25;;;;;;;0.60;0.30;;;;;;;;;;5020419;28;20488;-82
2023/10/04 11:36:58;;;;;;;1.07;0.40;;;17.50;99.90;;;;;;5013140;28;20441;-83
2023/10/04 11:39:33;;;;;;;0.40;0.20;;;17.50;99.90;;;;;;5012835;28;21039;-79
2023/10/04 11:41:59;;;;;;;5.40;0.93;;;;;;;;;;5013514;28;20503;-82
2023/10/04 11:44:25;;;;;;;0.40;0.20;;;;;;;;;;4998089;28;20505;-84
2023/10/04 11:46:55;;;;;;;0.50;0.30;;;16.50;99.90;;;;;;5011016;28;21563;-81
2023/10/04 11:49:22;;;;;;;1.13;1.13;;;;;;;;;;5013780;28;20449;-77
2023/10/04 11:51:50;;;;;;;0.40;0.30;;;16.60;99.90;;;;;;4996673;28;20448;-81
2023/10/04 11:54:16;;;;;;;0.40;0.30;;;;;;;;;;5015059;28;20475;-80
2023/10/04 11:56:42;;;;;;;0.40;0.30;;;;;;;;;;4997956;28;21024;-78
2023/10/04 11:59:08;;;;;;;0.40;0.20;;;17.60;99.90;;;;;;5014347;28;21395;-79
2023/10/04 12:01:46;;;;;;;0.40;0.20;;;17.60;99.90;;;;;;5000256;28;20472;-78
2023/10/04 12:04:14;;;;;;;0.40;0.30;;;18.00;99.90;;;;;;5000452;28;20460;-85
2023/10/04 12:06:40;;;;;;;0.40;0.20;;;;;;;;;;5005271;28;20481;-86
2023/10/04 12:09:08;;;;;;;0.40;0.30;;;;;;;;;;5006203;28;20452;-86
2023/10/04 12:11:35;;;;;;;0.50;0.40;;;18.20;99.90;;;;;;5005323;28;20453;-85
2023/10/04 12:14:05;;;;;;;0.40;0.30;;;17.20;99.90;;;;;;5026611;28;20696;-84
2023/10/04 12:16:37;;;;;;;0.50;0.40;;;17.10;99.90;;;;;;5005204;28;20488;-81
2023/10/04 12:19:03;;;;;;;0.80;0.70;;;17.20;99.90;;;;;;5011098;28;20433;-79
2023/10/04 12:21:28;;;;;;;0.40;0.20;;;17.00;99.90;;;;;;4991864;28;20475;-82
2023/10/04 12:23:54;;;;;;;0.40;0.30;;;;;;;;;;4991886;28;21224;-78
2023/10/04 12:26:20;;;;;;;0.40;0.30;;;;;;;;;;4999593;28;20213;-80
2023/10/04 12:28:48;;;;;;;0.40;0.30;;;17.10;99.90;;;;;;5011099;28;20441;-81
2023/10/04 12:31:13;;;;;;;0.40;0.20;;;17.00;99.90;;;;;;5010413;28;20482;-84
2023/10/04 12:33:39;;;;;;;0.40;0.30;;;;;;;;;;5008515;28;20522;-82
2023/10/04 12:36:05;;;;;;;0.40;0.20;;;16.70;99.90;;;;;;5008944;28;20183;-80
2023/10/04 12:38:31;;;;;;;0.50;0.40;;;;;;;;;;5012406;28;21356;-85
2023/10/04 12:40:57;;;;;;;0.40;0.30;;;17.30;99.90;;;;;;5002351;28;20240;-85
2023/10/04 12:43:24;;;;;;;0.40;0.20;;;;;;;;;;5006596;28;20513;-83
2023/10/04 12:45:53;;;;;;;0.90;0.73;;;17.80;99.90;;;;;;5004027;28;20178;-85
2023/10/04 12:48:19;;;;;;;1.20;0.50;;;;;;;;;;5017845;28;20468;-84
2023/10/04 12:50:45;;;;;;;0.40;0.30;;;;;;;;;;5003111;28;20449;-86
2023/10/04 12:53:14;;;;;;;0.40;0.30;;;18.10;99.90;;;;;;5001938;28;20568;-87
2023/10/04 12:55:40;;;;;;;0.87;0.50;;;;;;;;;;5020367;28;20448;-89
2023/10/04 12:58:06;;;;;;;0.40;0.30;;;18.30;99.90;;;;;;5004247;28;20453;-87
2023/10/04 13:00:33;;;;;;;0.50;0.40;;;;;;;;;;5006710;28;20454;-85
2023/10/04 13:03:00;;;;;;;0.40;0.27;;;;;;;;;;5005275;28;20461;-87
2023/10/04 13:05:27;;;;;;;0.80;0.80;;;;;;;;;;5006972;28;20432;-88
2023/10/04 13:07:56;;;;;;;0.47;0.40;;;17.70;99.90;;;;;;5005384;28;20425;-87
2023/10/04 13:10:23;;;;;;;1.00;0.90;;;17.70;99.90;;;;;;5024925;28;20453;-85
2023/10/04 13:12:49;;;;;;;0.40;0.20;;;;;;;;;;5005352;28;20456;-86
2023/10/04 13:15:16;;;;;;;0.40;0.20;;;;;;;;;;5023638;28;20459;-87
2023/10/04 13:17:43;;;;;;;2.80;0.50;;;;;;;;;;5013207;28;20435;-85
2023/10/04 13:20:17;;;;;;;0.40;0.20;;;17.10;99.90;;;;;;5008447;28;21025;-86
2023/10/04 13:22:43;;;;;;;0.40;0.30;;;17.20;99.90;;;;;;5015703;28;20426;-80
2023/10/04 13:25:09;;;;;;;0.40;0.30;;;18.60;99.90;;;;;;5009616;28;20817;-82
2023/10/04 13:27:35;;;;;;;0.40;0.20;;;;;;;;;;4994245;28;20445;-81
2023/10/04 13:30:01;;;;;;;0.50;0.30;;;;;;;;;;4999268;28;20206;-82
2023/10/04 13:32:31;;;;;;;1.23;0.83;;;17.90;99.90;;;;;;5004162;28;20454;-78
2023/10/04 13:34:57;;;;;;;0.40;0.37;;;17.90;99.90;;;;;;5011220;28;20483;-83